sensor_id;sensor_type;location;lat;lon;timestamp;temperature;humidity
25192;DHT22;13143;50.924;5.320;2023-04-24T00:01:52;12.10;99.90
25192;DHT22;13143;50.924;5.320;2023-04-24T00:04:18;12.10;99.90
25192;DHT22;13143;50.924;5.320;2023-04-24T00:06:44;12.10;99.90
25192;DHT22;13143;50.924;5.320;2023-04-24T00:09:15;12.10;99.90
25192;DHT22;13143;50.924;5.320;2023-04-24T00:11:41;12.00;99.90
25192;DHT22;13143;50.924;5.320;2023-04-24T00:14:07;12.10;99.90
25192;DHT22;13143;50.924;5.320;2023-04-24T00:16:33;12.10;99.90
25192;DHT22;13143;50.924;5.320;2023-04-24T00:18:59;12.00;99.90
25192;DHT22;13143;50.924;5.320;2023-04-24T00:21:26;12.00;99.90
25192;DHT22;13143;50.924;5.320;2023-04-24T00:23:52;12.00;99.90
25192;DHT22;13143;50.924;5.320;2023-04-24T00:26:19;12.00;99.90
25192;DHT22;13143;50.924;5.320;2023-04-24T00:28:45;12.00;99.90
25192;DHT22;13143;50.924;5.320;2023-04-24T00:31:11;12.00;99.90
25192;DHT22;13143;50.924;5.320;2023-04-24T00:33:37;12.00;99.90
25192;DHT22;13143;50.924;5.320;2023-04-24T00:36:03;11.90;99.90
25192;DHT22;13143;50.924;5.320;2023-04-24T00:38:29;11.90;99.90
25192;DHT22;13143;50.924;5.320;2023-04-24T00:40:55;11.90;99.90
25192;DHT22;13143;50.924;5.320;2023-04-24T00:43:21;11.90;99.90
25192;DHT22;13143;50.924;5.320;2023-04-24T00:45:47;11.90;99.90
25192;DHT22;13143;50.924;5.320;2023-04-24T00:48:14;11.90;99.90
25192;DHT22;13143;50.924;5.320;2023-04-24T00:50:40;11.90;99.90
25192;DHT22;13143;50.924;5.320;2023-04-24T00:53:07;11.90;99.90
25192;DHT22;13143;50.924;5.320;2023-04-24T00:55:33;11.90;99.90
25192;DHT22;13143;50.924;5.320;2023-04-24T00:57:59;11.90;99.90
25192;DHT22;13143;50.924;5.320;2023-04-24T01:00:26;11.90;99.90
25192;DHT22;13143;50.924;5.320;2023-04-24T01:02:52;11.90;99.90
25192;DHT22;13143;50.924;5.320;2023-04-24T01:05:19;11.90;99.90
25192;DHT22;13143;50.924;5.320;2023-04-24T01:07:46;11.80;99.90
25192;DHT22;13143;50.924;5.320;2023-04-24T01:10:15;11.80;99.90
25192;DHT22;13143;50.924;5.320;2023-04-24T01:12:41;11.80;99.90
25192;DHT22;13143;50.924;5.320;2023-04-24T01:15:08;11.80;99.90
25192;DHT22;13143;50.924;5.320;2023-04-24T01:17:34;11.80;99.90
25192;DHT22;13143;50.924;5.320;2023-04-24T01:20:01;11.80;99.90
25192;DHT22;13143;50.924;5.320;2023-04-24T01:22:29;11.80;99.90
25192;DHT22;13143;50.924;5.320;2023-04-24T01:24:56;11.80;99.90
25192;DHT22;13143;50.924;5.320;2023-04-24T01:27:22;11.80;99.90
25192;DHT22;13143;50.924;5.320;2023-04-24T01:29:48;11.80;99.90
25192;DHT22;13143;50.924;5.320;2023-04-24T01:32:15;11.70;99.90
25192;DHT22;13143;50.924;5.320;2023-04-24T01:34:42;11.70;99.90
25192;DHT22;13143;50.924;5.320;2023-04-24T01:37:08;11.80;99.90
25192;DHT22;13143;50.924;5.320;2023-04-24T01:39:34;11.80;99.90
25192;DHT22;13143;50.924;5.320;2023-04-24T01:42:00;11.70;99.90
25192;DHT22;13143;50.924;5.320;2023-04-24T01:44:28;11.70;99.90
25192;DHT22;13143;50.924;5.320;2023-04-24T01:46:55;11.70;99.90
25192;DHT22;13143;50.924;5.320;2023-04-24T01:49:21;11.70;99.90
25192;DHT22;13143;50.924;5.320;2023-04-24T01:51:47;11.70;99.90
25192;DHT22;13143;50.924;5.320;2023-04-24T01:54:14;11.70;99.90
25192;DHT22;13143;50.924;5.320;2023-04-24T01:56:43;11.70;99.90
25192;DHT22;13143;50.924;5.320;2023-04-24T01:59:12;11.70;99.90
25192;DHT22;13143;50.924;5.320;2023-04-24T02:01:39;11.70;99.90
25192;DHT22;13143;50.924;5.320;2023-04-24T02:04:06;11.60;99.90
25192;DHT22;13143;50.924;5.320;2023-04-24T02:06:33;11.60;99.90
25192;DHT22;13143;50.924;5.320;2023-04-24T02:08:59;11.60;99.90
25192;DHT22;13143;50.924;5.320;2023-04-24T02:11:26;11.60;99.90
25192;DHT22;13143;50.924;5.320;2023-04-24T02:13:52;11.60;99.90
25192;DHT22;13143;50.924;5.320;2023-04-24T02:16:19;11.60;99.90
25192;DHT22;13143;50.924;5.320;2023-04-24T02:18:45;11.60;99.90
25192;DHT22;13143;50.924;5.320;2023-04-24T02:21:11;11.60;99.90
25192;DHT22;13143;50.924;5.320;2023-04-24T02:23:37;11.50;99.90
25192;DHT22;13143;50.924;5.320;2023-04-24T02:26:03;11.50;99.90
25192;DHT22;13143;50.924;5.320;2023-04-24T02:28:29;11.60;99.90
25192;DHT22;13143;50.924;5.320;2023-04-24T02:30:55;11.50;99.90
25192;DHT22;13143;50.924;5.320;2023-04-24T02:33:21;11.50;99.90
25192;DHT22;13143;50.924;5.320;2023-04-24T02:35:47;11.50;99.90
25192;DHT22;13143;50.924;5.320;2023-04-24T02:38:13;11.50;99.90
25192;DHT22;13143;50.924;5.320;2023-04-24T02:40:39;11.50;99.90
25192;DHT22;13143;50.924;5.320;2023-04-24T02:43:05;11.50;99.90
25192;DHT22;13143;50.924;5.320;2023-04-24T02:45:32;11.40;99.90
25192;DHT22;13143;50.924;5.320;2023-04-24T02:48:00;11.50;99.90
25192;DHT22;13143;50.924;5.320;2023-04-24T02:50:26;11.40;99.90
25192;DHT22;13143;50.924;5.320;2023-04-24T02:52:52;11.40;99.90
25192;DHT22;13143;50.924;5.320;2023-04-24T02:55:18;11.40;99.90
25192;DHT22;13143;50.924;5.320;2023-04-24T02:57:44;11.40;99.90
25192;DHT22;13143;50.924;5.320;2023-04-24T03:00:11;11.40;99.90
25192;DHT22;13143;50.924;5.320;2023-04-24T03:02:37;11.30;99.90
25192;DHT22;13143;50.924;5.320;2023-04-24T03:05:03;11.40;99.90
25192;DHT22;13143;50.924;5.320;2023-04-24T03:07:30;11.30;99.90
25192;DHT22;13143;50.924;5.320;2023-04-24T03:09:57;11.30;99.90
25192;DHT22;13143;50.924;5.320;2023-04-24T03:12:24;11.30;99.90
25192;DHT22;13143;50.924;5.320;2023-04-24T03:14:50;11.30;99.90
25192;DHT22;13143;50.924;5.320;2023-04-24T03:17:16;11.30;99.90
25192;DHT22;13143;50.924;5.320;2023-04-24T03:19:42;11.30;99.90
25192;DHT22;13143;50.924;5.320;2023-04-24T03:22:08;11.30;99.90
25192;DHT22;13143;50.924;5.320;2023-04-24T03:24:35;11.30;99.90
25192;DHT22;13143;50.924;5.320;2023-04-24T03:27:01;11.30;99.90
25192;DHT22;13143;50.924;5.320;2023-04-24T03:29:27;11.20;99.90
25192;DHT22;13143;50.924;5.320;2023-04-24T03:31:53;11.30;99.90
25192;DHT22;13143;50.924;5.320;2023-04-24T03:34:19;11.20;99.90
25192;DHT22;13143;50.924;5.320;2023-04-24T03:36:45;11.20;99.90
25192;DHT22;13143;50.924;5.320;2023-04-24T03:39:13;11.20;99.90
25192;DHT22;13143;50.924;5.320;2023-04-24T03:41:40;11.20;99.90
25192;DHT22;13143;50.924;5.320;2023-04-24T03:44:06;11.20;99.90
25192;DHT22;13143;50.924;5.320;2023-04-24T03:46:32;11.20;99.90
25192;DHT22;13143;50.924;5.320;2023-04-24T03:48:58;11.20;99.90
25192;DHT22;13143;50.924;5.320;2023-04-24T03:51:24;11.20;99.90
25192;DHT22;13143;50.924;5.320;2023-04-24T03:53:51;11.10;99.90
25192;DHT22;13143;50.924;5.320;2023-04-24T03:56:17;11.10;99.90
25192;DHT22;13143;50.924;5.320;2023-04-24T03:58:43;11.10;99.90
25192;DHT22;13143;50.924;5.320;2023-04-24T04:01:09;11.10;99.90
25192;DHT22;13143;50.924;5.320;2023-04-24T04:03:37;11.10;99.90
25192;DHT22;13143;50.924;5.320;2023-04-24T04:06:03;11.10;99.90
25192;DHT22;13143;50.924;5.320;2023-04-24T04:08:29;11.10;99.90
25192;DHT22;13143;50.924;5.320;2023-04-24T04:10:56;11.10;99.90
25192;DHT22;13143;50.924;5.320;2023-04-24T04:13:22;11.10;99.90
25192;DHT22;13143;50.924;5.320;2023-04-24T04:15:48;11.10;99.90
25192;DHT22;13143;50.924;5.320;2023-04-24T04:18:15;11.00;99.90
25192;DHT22;13143;50.924;5.320;2023-04-24T04:20:41;11.00;99.90
25192;DHT22;13143;50.924;5.320;2023-04-24T04:23:07;11.00;99.90
25192;DHT22;13143;50.924;5.320;2023-04-24T04:25:33;11.00;99.90
25192;DHT22;13143;50.924;5.320;2023-04-24T04:28:00;11.00;99.90
25192;DHT22;13143;50.924;5.320;2023-04-24T04:30:26;11.00;99.90
25192;DHT22;13143;50.924;5.320;2023-04-24T04:32:52;11.00;99.90
25192;DHT22;13143;50.924;5.320;2023-04-24T04:35:18;10.90;99.90
25192;DHT22;13143;50.924;5.320;2023-04-24T04:37:44;10.90;99.90
25192;DHT22;13143;50.924;5.320;2023-04-24T04:40:11;10.90;99.90
25192;DHT22;13143;50.924;5.320;2023-04-24T04:42:38;10.90;99.90
25192;DHT22;13143;50.924;5.320;2023-04-24T04:45:08;10.90;99.90
25192;DHT22;13143;50.924;5.320;2023-04-24T04:47:35;10.90;99.90
25192;DHT22;13143;50.924;5.320;2023-04-24T04:50:01;10.90;99.90
25192;DHT22;13143;50.924;5.320;2023-04-24T04:52:27;10.90;99.90
25192;DHT22;13143;50.924;5.320;2023-04-24T04:54:53;10.90;99.90
25192;DHT22;13143;50.924;5.320;2023-04-24T04:57:19;10.90;99.90
25192;DHT22;13143;50.924;5.320;2023-04-24T04:59:46;10.80;99.90
25192;DHT22;13143;50.924;5.320;2023-04-24T05:02:12;10.90;99.90
25192;DHT22;13143;50.924;5.320;2023-04-24T05:04:38;10.80;99.90
25192;DHT22;13143;50.924;5.320;2023-04-24T05:07:04;10.80;99.90
25192;DHT22;13143;50.924;5.320;2023-04-24T05:09:31;10.80;99.90
25192;DHT22;13143;50.924;5.320;2023-04-24T05:11:57;10.80;99.90
25192;DHT22;13143;50.924;5.320;2023-04-24T05:14:23;10.80;99.90
25192;DHT22;13143;50.924;5.320;2023-04-24T05:16:49;10.80;99.90
25192;DHT22;13143;50.924;5.320;2023-04-24T05:19:15;10.80;99.90
25192;DHT22;13143;50.924;5.320;2023-04-24T05:21:41;10.80;99.90
25192;DHT22;13143;50.924;5.320;2023-04-24T05:24:08;10.80;99.90
25192;DHT22;13143;50.924;5.320;2023-04-24T05:26:34;10.80;99.90
25192;DHT22;13143;50.924;5.320;2023-04-24T05:29:01;10.80;99.90
25192;DHT22;13143;50.924;5.320;2023-04-24T05:31:28;10.80;99.90
25192;DHT22;13143;50.924;5.320;2023-04-24T05:33:54;10.80;99.90
25192;DHT22;13143;50.924;5.320;2023-04-24T05:36:20;10.80;99.90
25192;DHT22;13143;50.924;5.320;2023-04-24T05:38:46;10.80;99.90
25192;DHT22;13143;50.924;5.320;2023-04-24T05:41:12;10.80;99.90
25192;DHT22;13143;50.924;5.320;2023-04-24T05:43:38;10.80;99.90
25192;DHT22;13143;50.924;5.320;2023-04-24T05:46:04;10.80;99.90
25192;DHT22;13143;50.924;5.320;2023-04-24T05:48:30;10.70;99.90
25192;DHT22;13143;50.924;5.320;2023-04-24T05:50:56;10.70;99.90
25192;DHT22;13143;50.924;5.320;2023-04-24T05:53:22;10.70;99.90
25192;DHT22;13143;50.924;5.320;2023-04-24T05:55:48;10.70;99.90
25192;DHT22;13143;50.924;5.320;2023-04-24T05:58:15;10.70;99.90
25192;DHT22;13143;50.924;5.320;2023-04-24T06:00:41;10.70;99.90
25192;DHT22;13143;50.924;5.320;2023-04-24T06:03:09;10.70;99.90
25192;DHT22;13143;50.924;5.320;2023-04-24T06:05:35;10.70;99.90
25192;DHT22;13143;50.924;5.320;2023-04-24T06:08:01;10.70;99.90
25192;DHT22;13143;50.924;5.320;2023-04-24T06:10:27;10.70;99.90
25192;DHT22;13143;50.924;5.320;2023-04-24T06:12:53;10.60;99.90
25192;DHT22;13143;50.924;5.320;2023-04-24T06:15:22;10.60;99.90
25192;DHT22;13143;50.924;5.320;2023-04-24T06:17:48;10.60;99.90
25192;DHT22;13143;50.924;5.320;2023-04-24T06:20:14;10.60;99.90
25192;DHT22;13143;50.924;5.320;2023-04-24T06:22:40;10.60;99.90
25192;DHT22;13143;50.924;5.320;2023-04-24T06:25:06;10.60;99.90
25192;DHT22;13143;50.924;5.320;2023-04-24T06:27:33;10.60;99.90
25192;DHT22;13143;50.924;5.320;2023-04-24T06:29:59;10.60;99.90
25192;DHT22;13143;50.924;5.320;2023-04-24T06:32:26;10.60;99.90
25192;DHT22;13143;50.924;5.320;2023-04-24T06:34:53;10.60;99.90
25192;DHT22;13143;50.924;5.320;2023-04-24T06:37:19;10.60;99.90
25192;DHT22;13143;50.924;5.320;2023-04-24T06:39:46;10.60;99.90
25192;DHT22;13143;50.924;5.320;2023-04-24T06:42:12;10.60;99.90
25192;DHT22;13143;50.924;5.320;2023-04-24T06:44:38;10.60;99.90
25192;DHT22;13143;50.924;5.320;2023-04-24T06:47:07;10.50;99.90
25192;DHT22;13143;50.924;5.320;2023-04-24T06:49:38;10.50;99.90
25192;DHT22;13143;50.924;5.320;2023-04-24T06:52:04;10.50;99.90
25192;DHT22;13143;50.924;5.320;2023-04-24T06:54:30;10.50;99.90
25192;DHT22;13143;50.924;5.320;2023-04-24T06:56:57;10.50;99.90
25192;DHT22;13143;50.924;5.320;2023-04-24T06:59:24;10.50;99.90
25192;DHT22;13143;50.924;5.320;2023-04-24T07:01:50;10.50;99.90
25192;DHT22;13143;50.924;5.320;2023-04-24T07:04:19;10.50;99.90
25192;DHT22;13143;50.924;5.320;2023-04-24T07:06:45;10.50;99.90
25192;DHT22;13143;50.924;5.320;2023-04-24T07:09:12;10.50;99.90
25192;DHT22;13143;50.924;5.320;2023-04-24T07:11:39;10.50;99.90
25192;DHT22;13143;50.924;5.320;2023-04-24T07:14:06;10.50;99.90
25192;DHT22;13143;50.924;5.320;2023-04-24T07:16:33;10.50;99.90
25192;DHT22;13143;50.924;5.320;2023-04-24T07:18:59;10.50;99.90
25192;DHT22;13143;50.924;5.320;2023-04-24T07:21:26;10.40;99.90
25192;DHT22;13143;50.924;5.320;2023-04-24T07:23:52;10.40;99.90
25192;DHT22;13143;50.924;5.320;2023-04-24T07:26:20;10.50;99.90
25192;DHT22;13143;50.924;5.320;2023-04-24T07:28:46;10.40;99.90
25192;DHT22;13143;50.924;5.320;2023-04-24T07:31:12;10.50;99.90
25192;DHT22;13143;50.924;5.320;2023-04-24T07:33:38;10.40;99.90
25192;DHT22;13143;50.924;5.320;2023-04-24T07:36:04;10.40;99.90
25192;DHT22;13143;50.924;5.320;2023-04-24T07:38:31;10.50;99.90
25192;DHT22;13143;50.924;5.320;2023-04-24T07:40:57;10.40;99.90
25192;DHT22;13143;50.924;5.320;2023-04-24T07:43:23;10.40;99.90
25192;DHT22;13143;50.924;5.320;2023-04-24T07:45:50;10.40;99.90
25192;DHT22;13143;50.924;5.320;2023-04-24T07:48:16;10.50;99.90
25192;DHT22;13143;50.924;5.320;2023-04-24T07:50:44;10.50;99.90
25192;DHT22;13143;50.924;5.320;2023-04-24T07:53:10;10.40;99.90
25192;DHT22;13143;50.924;5.320;2023-04-24T07:55:36;10.50;99.90
25192;DHT22;13143;50.924;5.320;2023-04-24T07:58:02;10.40;99.90
25192;DHT22;13143;50.924;5.320;2023-04-24T08:00:28;10.40;99.90
25192;DHT22;13143;50.924;5.320;2023-04-24T08:02:55;10.40;99.90
25192;DHT22;13143;50.924;5.320;2023-04-24T08:05:21;10.50;99.90
25192;DHT22;13143;50.924;5.320;2023-04-24T08:07:47;10.50;99.90
25192;DHT22;13143;50.924;5.320;2023-04-24T08:10:16;10.50;99.90
25192;DHT22;13143;50.924;5.320;2023-04-24T08:12:42;10.50;99.90
25192;DHT22;13143;50.924;5.320;2023-04-24T08:15:08;10.40;99.90
25192;DHT22;13143;50.924;5.320;2023-04-24T08:17:35;10.40;99.90
25192;DHT22;13143;50.924;5.320;2023-04-24T08:20:02;10.50;99.90
25192;DHT22;13143;50.924;5.320;2023-04-24T08:22:29;10.40;99.90
25192;DHT22;13143;50.924;5.320;2023-04-24T08:24:56;10.40;99.90
25192;DHT22;13143;50.924;5.320;2023-04-24T08:27:23;10.40;99.90
25192;DHT22;13143;50.924;5.320;2023-04-24T08:29:50;10.50;99.90
25192;DHT22;13143;50.924;5.320;2023-04-24T08:32:16;10.40;99.90
25192;DHT22;13143;50.924;5.320;2023-04-24T08:34:42;10.50;99.90
25192;DHT22;13143;50.924;5.320;2023-04-24T08:37:08;10.40;99.90
25192;DHT22;13143;50.924;5.320;2023-04-24T08:39:35;10.50;99.90
25192;DHT22;13143;50.924;5.320;2023-04-24T08:42:01;10.50;99.90
25192;DHT22;13143;50.924;5.320;2023-04-24T08:44:32;10.50;99.90
25192;DHT22;13143;50.924;5.320;2023-04-24T08:46:58;10.50;99.90
25192;DHT22;13143;50.924;5.320;2023-04-24T08:49:25;10.50;99.90
25192;DHT22;13143;50.924;5.320;2023-04-24T08:51:53;10.50;99.90
25192;DHT22;13143;50.924;5.320;2023-04-24T08:54:19;10.50;99.90
25192;DHT22;13143;50.924;5.320;2023-04-24T08:56:47;10.60;99.90
25192;DHT22;13143;50.924;5.320;2023-04-24T08:59:15;10.60;99.90
25192;DHT22;13143;50.924;5.320;2023-04-24T09:01:41;10.60;99.90
25192;DHT22;13143;50.924;5.320;2023-04-24T09:04:09;10.60;99.90
25192;DHT22;13143;50.924;5.320;2023-04-24T09:06:36;10.60;99.90
25192;DHT22;13143;50.924;5.320;2023-04-24T09:09:03;10.60;99.90
25192;DHT22;13143;50.924;5.320;2023-04-24T09:11:32;10.60;99.90
25192;DHT22;13143;50.924;5.320;2023-04-24T09:13:59;10.60;99.90
25192;DHT22;13143;50.924;5.320;2023-04-24T09:16:26;10.60;99.90
25192;DHT22;13143;50.924;5.320;2023-04-24T09:18:53;10.70;99.90
25192;DHT22;13143;50.924;5.320;2023-04-24T09:21:22;10.60;99.90
25192;DHT22;13143;50.924;5.320;2023-04-24T09:23:59;10.70;99.90
25192;DHT22;13143;50.924;5.320;2023-04-24T09:26:26;10.70;99.90
25192;DHT22;13143;50.924;5.320;2023-04-24T09:28:54;10.70;99.90
25192;DHT22;13143;50.924;5.320;2023-04-24T09:31:20;10.70;99.90
25192;DHT22;13143;50.924;5.320;2023-04-24T09:36:28;10.70;99.90
25192;DHT22;13143;50.924;5.320;2023-04-24T09:39:01;10.70;99.90
25192;DHT22;13143;50.924;5.320;2023-04-24T09:41:28;10.70;99.90
25192;DHT22;13143;50.924;5.320;2023-04-24T09:43:58;10.80;99.90
25192;DHT22;13143;50.924;5.320;2023-04-24T09:46:36;10.80;99.90
25192;DHT22;13143;50.924;5.320;2023-04-24T09:49:31;10.80;99.90
25192;DHT22;13143;50.924;5.320;2023-04-24T09:52:09;10.80;99.90
25192;DHT22;13143;50.924;5.320;2023-04-24T09:54:36;10.80;99.90
25192;DHT22;13143;50.924;5.320;2023-04-24T09:57:06;10.90;99.90
25192;DHT22;13143;50.924;5.320;2023-04-24T09:59:33;10.90;99.90
25192;DHT22;13143;50.924;5.320;2023-04-24T10:02:00;10.90;99.90
25192;DHT22;13143;50.924;5.320;2023-04-24T10:04:28;10.90;99.90
25192;DHT22;13143;50.924;5.320;2023-04-24T10:06:57;11.00;99.90
25192;DHT22;13143;50.924;5.320;2023-04-24T10:09:25;11.10;99.90
25192;DHT22;13143;50.924;5.320;2023-04-24T10:11:53;11.10;99.90
25192;DHT22;13143;50.924;5.320;2023-04-24T10:14:21;11.10;99.90
25192;DHT22;13143;50.924;5.320;2023-04-24T10:16:49;11.10;99.90
25192;DHT22;13143;50.924;5.320;2023-04-24T10:19:16;11.20;99.90
25192;DHT22;13143;50.924;5.320;2023-04-24T10:21:44;11.20;99.90
25192;DHT22;13143;50.924;5.320;2023-04-24T10:24:14;11.20;99.90
25192;DHT22;13143;50.924;5.320;2023-04-24T10:26:40;11.20;99.90
25192;DHT22;13143;50.924;5.320;2023-04-24T10:29:06;11.20;99.90
25192;DHT22;13143;50.924;5.320;2023-04-24T10:31:36;11.30;99.90
25192;DHT22;13143;50.924;5.320;2023-04-24T10:34:04;11.30;99.90
25192;DHT22;13143;50.924;5.320;2023-04-24T10:36:33;11.30;99.90
25192;DHT22;13143;50.924;5.320;2023-04-24T10:39:02;11.40;99.90
25192;DHT22;13143;50.924;5.320;2023-04-24T10:41:30;11.40;99.90
25192;DHT22;13143;50.924;5.320;2023-04-24T10:44:07;11.40;99.90
25192;DHT22;13143;50.924;5.320;2023-04-24T10:46:33;11.40;99.90
25192;DHT22;13143;50.924;5.320;2023-04-24T10:48:59;11.40;99.90
25192;DHT22;13143;50.924;5.320;2023-04-24T10:54:34;11.40;99.90
25192;DHT22;13143;50.924;5.320;2023-04-24T11:00:13;11.50;99.90
25192;DHT22;13143;50.924;5.320;2023-04-24T11:02:40;11.50;99.90
25192;DHT22;13143;50.924;5.320;2023-04-24T11:05:15;11.60;99.90
25192;DHT22;13143;50.924;5.320;2023-04-24T11:08:10;11.60;99.90
25192;DHT22;13143;50.924;5.320;2023-04-24T11:10:45;11.60;99.90
25192;DHT22;13143;50.924;5.320;2023-04-24T11:13:17;11.60;99.90
25192;DHT22;13143;50.924;5.320;2023-04-24T11:18:57;11.60;99.90
25192;DHT22;13143;50.924;5.320;2023-04-24T11:21:28;11.70;99.90
25192;DHT22;13143;50.924;5.320;2023-04-24T11:23:57;11.70;99.90
25192;DHT22;13143;50.924;5.320;2023-04-24T11:26:23;11.70;99.90
25192;DHT22;13143;50.924;5.320;2023-04-24T11:29:07;11.70;99.90
25192;DHT22;13143;50.924;5.320;2023-04-24T11:31:41;11.70;99.90
25192;DHT22;13143;50.924;5.320;2023-04-24T11:34:14;11.70;99.90
25192;DHT22;13143;50.924;5.320;2023-04-24T11:36:46;11.70;99.90
25192;DHT22;13143;50.924;5.320;2023-04-24T11:39:13;11.80;99.90
25192;DHT22;13143;50.924;5.320;2023-04-24T11:41:39;11.80;99.90
25192;DHT22;13143;50.924;5.320;2023-04-24T11:44:07;11.80;99.90
25192;DHT22;13143;50.924;5.320;2023-04-24T11:46:34;11.80;99.90
25192;DHT22;13143;50.924;5.320;2023-04-24T11:49:00;11.80;99.90
25192;DHT22;13143;50.924;5.320;2023-04-24T11:51:27;11.80;99.90
25192;DHT22;13143;50.924;5.320;2023-04-24T11:53:55;11.80;99.90
25192;DHT22;13143;50.924;5.320;2023-04-24T11:56:22;11.80;99.90
25192;DHT22;13143;50.924;5.320;2023-04-24T11:58:51;11.90;99.90
25192;DHT22;13143;50.924;5.320;2023-04-24T12:01:17;11.90;99.90
25192;DHT22;13143;50.924;5.320;2023-04-24T12:03:48;12.00;99.90
25192;DHT22;13143;50.924;5.320;2023-04-24T12:06:14;12.00;99.90
25192;DHT22;13143;50.924;5.320;2023-04-24T12:08:40;11.90;99.90
25192;DHT22;13143;50.924;5.320;2023-04-24T12:11:07;12.00;99.90
25192;DHT22;13143;50.924;5.320;2023-04-24T12:13:34;12.00;99.90
25192;DHT22;13143;50.924;5.320;2023-04-24T12:16:02;12.10;99.90
25192;DHT22;13143;50.924;5.320;2023-04-24T12:18:30;12.10;99.90
25192;DHT22;13143;50.924;5.320;2023-04-24T12:21:17;12.10;99.90
25192;DHT22;13143;50.924;5.320;2023-04-24T12:23:44;12.10;99.90
25192;DHT22;13143;50.924;5.320;2023-04-24T12:26:12;12.10;99.90
25192;DHT22;13143;50.924;5.320;2023-04-24T12:28:41;12.10;99.90
25192;DHT22;13143;50.924;5.320;2023-04-24T12:31:07;12.20;99.90
25192;DHT22;13143;50.924;5.320;2023-04-24T12:33:34;12.20;99.90
25192;DHT22;13143;50.924;5.320;2023-04-24T12:36:01;12.20;99.90
25192;DHT22;13143;50.924;5.320;2023-04-24T12:38:29;12.20;99.90
25192;DHT22;13143;50.924;5.320;2023-04-24T12:41:04;12.30;99.90
25192;DHT22;13143;50.924;5.320;2023-04-24T12:43:30;12.30;99.90
25192;DHT22;13143;50.924;5.320;2023-04-24T12:45:56;12.30;99.90
25192;DHT22;13143;50.924;5.320;2023-04-24T12:48:22;12.30;99.90
25192;DHT22;13143;50.924;5.320;2023-04-24T12:50:49;12.30;99.90
25192;DHT22;13143;50.924;5.320;2023-04-24T12:53:15;12.40;99.90
25192;DHT22;13143;50.924;5.320;2023-04-24T12:55:41;12.40;99.90
25192;DHT22;13143;50.924;5.320;2023-04-24T12:58:08;12.40;99.90
25192;DHT22;13143;50.924;5.320;2023-04-24T13:00:34;12.40;99.90
25192;DHT22;13143;50.924;5.320;2023-04-24T13:03:00;12.40;99.90
25192;DHT22;13143;50.924;5.320;2023-04-24T13:05:27;12.50;99.90
25192;DHT22;13143;50.924;5.320;2023-04-24T13:07:53;12.50;99.90
25192;DHT22;13143;50.924;5.320;2023-04-24T13:10:19;12.50;99.90
25192;DHT22;13143;50.924;5.320;2023-04-24T13:12:45;12.50;99.90
25192;DHT22;13143;50.924;5.320;2023-04-24T13:15:12;12.50;99.90
25192;DHT22;13143;50.924;5.320;2023-04-24T13:17:38;12.50;99.90
25192;DHT22;13143;50.924;5.320;2023-04-24T13:20:04;12.60;99.90
25192;DHT22;13143;50.924;5.320;2023-04-24T13:22:31;12.60;99.90
25192;DHT22;13143;50.924;5.320;2023-04-24T13:24:57;12.60;99.90
25192;DHT22;13143;50.924;5.320;2023-04-24T13:27:23;12.70;99.90
25192;DHT22;13143;50.924;5.320;2023-04-24T13:29:49;12.70;99.90
25192;DHT22;13143;50.924;5.320;2023-04-24T13:32:15;12.70;99.90
25192;DHT22;13143;50.924;5.320;2023-04-24T13:34:41;12.70;99.90
25192;DHT22;13143;50.924;5.320;2023-04-24T13:37:07;12.70;99.90
25192;DHT22;13143;50.924;5.320;2023-04-24T13:39:33;12.70;99.90
25192;DHT22;13143;50.924;5.320;2023-04-24T13:41:59;12.80;99.90
25192;DHT22;13143;50.924;5.320;2023-04-24T13:44:26;12.80;99.90
25192;DHT22;13143;50.924;5.320;2023-04-24T13:46:54;12.80;99.90
25192;DHT22;13143;50.924;5.320;2023-04-24T13:49:23;12.90;99.90
25192;DHT22;13143;50.924;5.320;2023-04-24T13:51:51;12.90;99.90
25192;DHT22;13143;50.924;5.320;2023-04-24T13:54:17;12.90;99.90
25192;DHT22;13143;50.924;5.320;2023-04-24T13:56:43;13.00;99.90
25192;DHT22;13143;50.924;5.320;2023-04-24T13:59:11;13.00;99.90
25192;DHT22;13143;50.924;5.320;2023-04-24T14:01:38;13.00;99.90
25192;DHT22;13143;50.924;5.320;2023-04-24T14:04:04;13.00;99.90
25192;DHT22;13143;50.924;5.320;2023-04-24T14:06:30;13.00;99.90
25192;DHT22;13143;50.924;5.320;2023-04-24T14:08:57;13.00;99.90
25192;DHT22;13143;50.924;5.320;2023-04-24T14:11:23;13.00;99.90
25192;DHT22;13143;50.924;5.320;2023-04-24T14:13:49;13.00;99.90
25192;DHT22;13143;50.924;5.320;2023-04-24T14:16:16;13.00;99.90
25192;DHT22;13143;50.924;5.320;2023-04-24T14:18:42;13.10;99.90
25192;DHT22;13143;50.924;5.320;2023-04-24T14:21:08;13.10;99.90
25192;DHT22;13143;50.924;5.320;2023-04-24T14:23:34;13.10;99.90
25192;DHT22;13143;50.924;5.320;2023-04-24T14:26:00;13.10;99.90
25192;DHT22;13143;50.924;5.320;2023-04-24T14:28:26;13.10;99.90
25192;DHT22;13143;50.924;5.320;2023-04-24T14:30:52;13.10;99.90
25192;DHT22;13143;50.924;5.320;2023-04-24T14:33:19;13.10;99.90
25192;DHT22;13143;50.924;5.320;2023-04-24T14:35:46;13.20;99.90
25192;DHT22;13143;50.924;5.320;2023-04-24T14:38:12;13.20;99.90
25192;DHT22;13143;50.924;5.320;2023-04-24T14:40:38;13.20;99.90
25192;DHT22;13143;50.924;5.320;2023-04-24T14:43:04;13.20;99.90
25192;DHT22;13143;50.924;5.320;2023-04-24T14:45:30;13.20;99.90
25192;DHT22;13143;50.924;5.320;2023-04-24T14:47:57;13.20;99.90
25192;DHT22;13143;50.924;5.320;2023-04-24T14:50:24;13.20;99.90
25192;DHT22;13143;50.924;5.320;2023-04-24T14:52:54;13.30;99.90
25192;DHT22;13143;50.924;5.320;2023-04-24T14:55:23;13.30;99.90
25192;DHT22;13143;50.924;5.320;2023-04-24T14:57:50;13.30;99.90
25192;DHT22;13143;50.924;5.320;2023-04-24T15:00:16;13.30;99.90
25192;DHT22;13143;50.924;5.320;2023-04-24T15:02:43;13.30;99.90
25192;DHT22;13143;50.924;5.320;2023-04-24T15:05:10;13.30;99.90
25192;DHT22;13143;50.924;5.320;2023-04-24T15:07:37;13.40;99.90
25192;DHT22;13143;50.924;5.320;2023-04-24T15:10:04;13.40;99.90
25192;DHT22;13143;50.924;5.320;2023-04-24T15:12:30;13.40;99.90
25192;DHT22;13143;50.924;5.320;2023-04-24T15:14:58;13.40;99.90
25192;DHT22;13143;50.924;5.320;2023-04-24T15:17:25;13.40;99.90
25192;DHT22;13143;50.924;5.320;2023-04-24T15:19:51;13.40;99.90
25192;DHT22;13143;50.924;5.320;2023-04-24T15:22:17;13.50;99.90
25192;DHT22;13143;50.924;5.320;2023-04-24T15:24:43;13.50;99.90
25192;DHT22;13143;50.924;5.320;2023-04-24T15:27:10;13.50;99.90
25192;DHT22;13143;50.924;5.320;2023-04-24T15:29:37;13.50;99.90
25192;DHT22;13143;50.924;5.320;2023-04-24T15:32:03;13.50;99.90
25192;DHT22;13143;50.924;5.320;2023-04-24T15:34:29;13.50;99.90
25192;DHT22;13143;50.924;5.320;2023-04-24T15:36:55;13.50;99.90
25192;DHT22;13143;50.924;5.320;2023-04-24T15:39:24;13.50;99.90
25192;DHT22;13143;50.924;5.320;2023-04-24T15:41:51;13.50;99.90